Time;durP1;ratioP1;P1;durP2;ratioP2;P2;SDS_P1;SDS_P2;PMS_P1;PMS_P2;Temp;Humidity;BMP_temperature;BMP_pressure;BME280_temperature;BME280_humidity;BME280_pressure;Samples;Min_cycle;Max_cycle;Signal;HPM_P1;HPM_P2
2021/12/22 00:01:56;;;;;;;24.17;14.55;;;;;;;;;;4964476;28;20208;-78
2021/12/22 00:04:24;;;;;;;20.75;13.75;;;;;;;;;;4964271;28;20187;-79
2021/12/22 00:06:50;;;;;;;19.70;14.43;;;;;;;;;;4962369;28;20208;-78
2021/12/22 00:09:16;;;;;;;24.35;14.68;;;;;;;;;;4946664;28;20263;-78
2021/12/22 00:11:43;;;;;;;24.52;14.80;;;;;;;;;;4964953;28;20673;-79
2021/12/22 00:14:11;;;;;;;25.55;14.35;;;;;;;;;;4963897;28;20669;-78
2021/12/22 00:16:37;;;;;;;24.52;13.20;;;;;;;;;;4962452;28;20536;-78
2021/12/22 00:19:04;;;;;;;19.48;12.98;;;;;;;;;;4964482;28;20191;-78
2021/12/22 00:21:30;;;;;;;17.55;12.73;;;;;;;;;;4963999;29;20227;-78
2021/12/22 00:23:56;;;;;;;20.13;13.70;;;;;;;;;;4965725;29;20200;-78
2021/12/22 00:26:22;;;;;;;22.45;13.50;;;;;;;;;;4943873;29;20200;-78
2021/12/22 00:28:49;;;;;;;26.00;13.73;;;;;;;;;;4943682;29;20203;-78
2021/12/22 00:31:18;;;;;;;16.95;11.98;;;;;;;;;;4944807;29;20251;-78
2021/12/22 00:33:49;;;;;;;19.48;13.30;;;;;;;;;;4958236;29;20256;-78
2021/12/22 00:36:16;;;;;;;18.42;12.55;;;;;;;;;;4964376;28;21156;-79
2021/12/22 00:38:42;;;;;;;16.20;12.27;;;;;;;;;;4969479;29;20619;-79
2021/12/22 00:41:08;;;;;;;19.88;12.85;;;;;;;;;;4939316;29;20193;-79
2021/12/22 00:43:35;;;;;;;25.75;14.30;;;;;;;;;;4956531;28;20177;-78
2021/12/22 00:46:01;;;;;;;16.55;11.88;;;;;;;;;;4956012;29;20389;-78
2021/12/22 00:48:27;;;;;;;18.77;12.55;;;;;;;;;;4967333;29;20662;-78
2021/12/22 00:50:53;;;;;;;18.48;12.52;;;;;;;;;;4967829;29;20188;-78
2021/12/22 00:53:19;;;;;;;22.23;12.32;;;;;;;;;;4948163;29;20287;-78
2021/12/22 00:55:45;;;;;;;15.23;12.30;;;;;;;;;;4947712;29;20236;-78
2021/12/22 00:58:11;;;;;;;17.58;11.88;;;;;;;;;;4967130;28;20179;-78
2021/12/22 01:00:37;;;;;;;20.80;12.60;;;;;;;;;;4949269;29;20289;-78
2021/12/22 01:03:03;;;;;;;14.93;10.88;;;;;;;;;;4950470;28;20177;-78
2021/12/22 01:05:30;;;;;;;18.33;11.70;;;;;;;;;;4966381;29;20216;-78
2021/12/22 01:07:56;;;;;;;15.68;11.32;;;;;;;;;;4961562;29;20658;-78
2021/12/22 01:10:27;;;;;;;19.70;12.68;;;;;;;;;;4947470;29;20340;-78
2021/12/22 01:12:54;;;;;;;17.13;10.93;;;;;;;;;;4967465;29;20200;-78
2021/12/22 01:15:20;;;;;;;19.55;13.32;;;;;;;;;;4967675;28;20232;-78
2021/12/22 01:17:49;;;;;;;16.45;12.00;;;;;;;;;;4967366;29;20184;-78
2021/12/22 01:20:24;;;;;;;19.10;12.10;;;;;;;;;;4964805;28;20646;-78
2021/12/22 01:22:52;;;;;;;14.93;10.82;;;;;;;;;;4961695;28;20192;-78
2021/12/22 01:25:21;;;;;;;20.05;12.98;;;;;;;;;;4947636;29;20188;-78
2021/12/22 01:27:47;;;;;;;14.93;11.07;;;;;;;;;;4947389;29;20189;-78
2021/12/22 01:30:13;;;;;;;15.25;10.52;;;;;;;;;;4951619;29;20586;-78
2021/12/22 01:32:39;;;;;;;18.27;11.55;;;;;;;;;;4952946;29;20558;-78
2021/12/22 01:35:08;;;;;;;24.70;13.75;;;;;;;;;;4961160;29;20212;-78
2021/12/22 01:37:34;;;;;;;20.58;11.90;;;;;;;;;;4965135;28;20184;-78
2021/12/22 01:40:03;;;;;;;17.83;11.18;;;;;;;;;;4946596;29;20295;-78
2021/12/22 01:42:30;;;;;;;20.88;13.02;;;;;;;;;;4950015;28;24809;-78
2021/12/22 01:50:14;;;;;;;27.23;14.15;;;;;;;;;;4966589;29;20215;-78
2021/12/22 01:52:40;;;;;;;19.90;13.40;;;;;;;;;;4966434;29;20288;-78
2021/12/22 01:55:14;;;;;;;25.20;14.60;;;;;;;;;;4946700;29;20211;-78
2021/12/22 01:57:44;;;;;;;24.35;12.90;;;;;;;;;;4958457;28;20176;-78
2021/12/22 02:00:11;;;;;;;25.67;14.23;;;;;;;;;;4966812;29;20202;-78
2021/12/22 02:02:37;;;;;;;25.10;15.52;;;;;;;;;;4967518;29;20185;-78
2021/12/22 02:05:03;;;;;;;26.23;14.30;;;;;;;;;;4946921;29;20321;-78
2021/12/22 02:07:29;;;;;;;25.40;13.73;;;;;;;;;;4965882;28;20673;-79
2021/12/22 02:12:30;;;;;;;20.70;13.88;;;;;;;;;;4963815;29;20200;-78
2021/12/22 02:14:56;;;;;;;23.27;14.88;;;;;;;;;;4949683;29;20294;-79
2021/12/22 02:17:22;;;;;;;27.15;15.07;;;;;;;;;;4961933;28;20192;-79
2021/12/22 02:19:49;;;;;;;23.48;13.45;;;;;;;;;;4965641;29;20258;-78
2021/12/22 02:22:16;;;;;;;24.13;14.65;;;;;;;;;;4942756;29;20193;-79
2021/12/22 02:24:47;;;;;;;29.75;14.18;;;;;;;;;;4946524;29;20273;-79
2021/12/22 02:27:22;;;;;;;23.70;13.68;;;;;;;;;;4965110;29;20204;-79
2021/12/22 02:29:49;;;;;;;25.70;13.98;;;;;;;;;;4948379;29;20195;-78
2021/12/22 02:32:37;;;;;;;27.20;13.57;;;;;;;;;;4945507;29;20180;-80
2021/12/22 02:35:03;;;;;;;29.33;14.38;;;;;;;;;;4964252;28;20279;-79
2021/12/22 02:37:30;;;;;;;27.80;13.73;;;;;;;;;;4965325;28;20319;-80
2021/12/22 02:39:59;;;;;;;24.40;14.00;;;;;;;;;;4963694;28;20266;-80
2021/12/22 02:42:29;;;;;;;25.20;13.25;;;;;;;;;;4965056;28;20263;-80
2021/12/22 02:44:55;;;;;;;27.70;16.00;;;;;;;;;;4966075;29;20173;-80
2021/12/22 02:47:26;;;;;;;24.73;15.85;;;;;;;;;;4944953;29;20196;-81
2021/12/22 02:49:52;;;;;;;22.13;13.23;;;;;;;;;;4966171;29;20185;-80
2021/12/22 02:52:19;;;;;;;23.58;13.45;;;;;;;;;;4965207;28;20197;-79
2021/12/22 02:54:56;;;;;;;22.25;14.35;;;;;;;;;;4953866;28;20208;-79
2021/12/22 02:57:30;;;;;;;25.10;15.07;;;;;;;;;;4965302;28;20169;-81
2021/12/22 03:02:58;;;;;;;22.83;12.23;;;;;;;;;;4966572;29;20713;-80
2021/12/22 03:05:26;;;;;;;22.77;13.07;;;;;;;;;;4965710;28;20216;-79
2021/12/22 03:07:52;;;;;;;30.52;16.48;;;;;;;;;;4962088;29;20480;-80
2021/12/22 03:10:18;;;;;;;29.35;15.13;;;;;;;;;;4944960;29;20239;-79
2021/12/22 03:12:47;;;;;;;27.17;15.35;;;;;;;;;;4946775;29;20287;-79
2021/12/22 03:15:13;;;;;;;21.92;14.52;;;;;;;;;;4964705;28;20432;-79
2021/12/22 03:17:39;;;;;;;22.20;15.40;;;;;;;;;;4964848;29;20324;-79
2021/12/22 03:20:07;;;;;;;26.95;12.88;;;;;;;;;;4965280;28;20192;-79
2021/12/22 03:22:33;;;;;;;22.95;12.30;;;;;;;;;;4965355;28;20394;-80
2021/12/22 03:24:59;;;;;;;28.30;14.80;;;;;;;;;;4946812;29;20188;-79
2021/12/22 03:27:25;;;;;;;22.73;13.23;;;;;;;;;;4964585;29;20192;-79
2021/12/22 03:29:51;;;;;;;22.38;14.05;;;;;;;;;;4965600;29;20176;-79
2021/12/22 03:32:20;;;;;;;26.90;14.18;;;;;;;;;;4965189;29;20199;-79
2021/12/22 03:34:46;;;;;;;26.92;15.05;;;;;;;;;;4958082;29;20219;-79
2021/12/22 03:37:13;;;;;;;30.55;14.73;;;;;;;;;;4954752;28;20193;-79
2021/12/22 03:39:39;;;;;;;22.67;13.98;;;;;;;;;;4964514;29;20617;-79
2021/12/22 03:42:06;;;;;;;23.42;13.70;;;;;;;;;;4965197;28;20177;-79
2021/12/22 03:44:32;;;;;;;21.65;13.23;;;;;;;;;;4965127;29;20611;-79
2021/12/22 03:47:00;;;;;;;25.77;14.23;;;;;;;;;;4960707;29;20203;-78
2021/12/22 03:49:27;;;;;;;25.95;13.32;;;;;;;;;;4964669;29;20207;-79
2021/12/22 03:51:53;;;;;;;28.35;14.20;;;;;;;;;;4944422;29;20219;-79
2021/12/22 03:54:19;;;;;;;23.95;14.82;;;;;;;;;;4964503;28;20196;-79
2021/12/22 03:56:45;;;;;;;23.98;14.13;;;;;;;;;;4939087;29;20184;-79
2021/12/22 03:59:11;;;;;;;20.98;13.48;;;;;;;;;;4960137;29;20618;-79
2021/12/22 04:01:38;;;;;;;22.50;13.63;;;;;;;;;;4957856;28;20228;-79
2021/12/22 04:04:12;;;;;;;20.20;13.80;;;;;;;;;;4944637;29;20192;-79
2021/12/22 04:06:38;;;;;;;24.02;13.93;;;;;;;;;;4949775;28;20228;-79
2021/12/22 04:09:05;;;;;;;22.20;12.07;;;;;;;;;;4965324;28;20188;-79
2021/12/22 04:11:31;;;;;;;24.58;15.02;;;;;;;;;;4966328;28;20188;-79
2021/12/22 04:13:57;;;;;;;26.38;15.50;;;;;;;;;;4948326;29;20724;-79
2021/12/22 04:16:23;;;;;;;23.98;13.38;;;;;;;;;;4947787;29;20191;-79
2021/12/22 04:18:49;;;;;;;24.95;14.57;;;;;;;;;;4967913;28;20196;-79
2021/12/22 04:21:15;;;;;;;21.95;12.23;;;;;;;;;;4950826;28;20169;-79
2021/12/22 04:23:41;;;;;;;27.00;15.27;;;;;;;;;;4969436;29;20183;-79
2021/12/22 04:26:07;;;;;;;24.50;13.55;;;;;;;;;;4967700;29;20206;-79
2021/12/22 04:28:33;;;;;;;24.50;13.50;;;;;;;;;;4967300;29;20181;-79
2021/12/22 04:30:59;;;;;;;28.00;14.95;;;;;;;;;;4947957;29;20239;-79
2021/12/22 04:33:25;;;;;;;25.02;14.50;;;;;;;;;;4968609;29;20631;-78
2021/12/22 04:35:52;;;;;;;21.27;14.10;;;;;;;;;;4968969;29;20200;-78
2021/12/22 04:38:18;;;;;;;30.55;14.95;;;;;;;;;;4947264;29;20192;-78
2021/12/22 04:40:44;;;;;;;28.20;13.40;;;;;;;;;;4967561;29;20183;-78
2021/12/22 04:43:10;;;;;;;19.55;13.80;;;;;;;;;;4947759;29;20188;-78
2021/12/22 04:45:36;;;;;;;24.50;13.25;;;;;;;;;;4967506;28;20235;-78
2021/12/22 04:48:03;;;;;;;31.15;14.85;;;;;;;;;;4952140;29;20224;-78
2021/12/22 04:50:31;;;;;;;24.15;13.30;;;;;;;;;;4948198;29;20181;-78
2021/12/22 04:53:06;;;;;;;22.52;12.68;;;;;;;;;;4967382;28;20193;-78
2021/12/22 04:55:32;;;;;;;21.30;14.52;;;;;;;;;;4967310;28;20196;-78
2021/12/22 04:57:59;;;;;;;27.58;13.98;;;;;;;;;;4948737;29;20188;-78
2021/12/22 05:00:26;;;;;;;21.33;13.07;;;;;;;;;;4966769;28;20538;-79
2021/12/22 05:02:53;;;;;;;23.50;14.00;;;;;;;;;;4951432;29;20240;-78
2021/12/22 05:05:19;;;;;;;27.42;15.93;;;;;;;;;;4966476;29;20221;-78
2021/12/22 05:07:47;;;;;;;20.15;12.38;;;;;;;;;;4947358;29;20196;-78
2021/12/22 05:10:13;;;;;;;25.73;13.98;;;;;;;;;;4966620;29;20256;-79
2021/12/22 05:12:39;;;;;;;23.48;13.30;;;;;;;;;;4967389;28;20195;-78
2021/12/22 05:15:06;;;;;;;18.48;13.13;;;;;;;;;;4966933;29;20208;-78
2021/12/22 05:18:00;;;;;;;20.73;14.20;;;;;;;;;;4949522;29;20184;-78
2021/12/22 05:20:24;;;;;;;25.95;14.63;;;;;;;;;;4966653;28;20200;-78
2021/12/22 05:22:50;;;;;;;29.48;16.02;;;;;;;;;;4966696;28;20194;-79
2021/12/22 05:25:17;;;;;;;24.02;13.93;;;;;;;;;;4947182;29;20191;-79
2021/12/22 05:27:43;;;;;;;21.98;13.18;;;;;;;;;;4966875;28;20193;-79
2021/12/22 05:30:10;;;;;;;27.48;14.18;;;;;;;;;;4967304;29;20206;-79
2021/12/22 05:32:36;;;;;;;24.10;12.55;;;;;;;;;;4966725;29;20231;-79
2021/12/22 05:35:04;;;;;;;24.63;14.85;;;;;;;;;;4966961;28;20212;-78
2021/12/22 05:37:30;;;;;;;26.67;15.38;;;;;;;;;;4945848;29;20195;-78
2021/12/22 05:39:56;;;;;;;25.95;15.02;;;;;;;;;;4966533;28;20184;-79
2021/12/22 05:42:23;;;;;;;26.15;12.85;;;;;;;;;;4966527;29;20176;-79
2021/12/22 05:44:49;;;;;;;20.65;11.32;;;;;;;;;;4953452;29;20208;-78
2021/12/22 05:47:15;;;;;;;23.27;13.90;;;;;;;;;;4964590;29;20189;-78
2021/12/22 05:49:43;;;;;;;28.25;15.18;;;;;;;;;;4966003;29;20188;-79
2021/12/22 05:52:09;;;;;;;24.25;14.00;;;;;;;;;;4965839;29;20188;-79
2021/12/22 05:54:35;;;;;;;24.40;13.35;;;;;;;;;;4948787;29;20278;-78
2021/12/22 05:57:01;;;;;;;22.67;13.93;;;;;;;;;;4967369;29;20180;-79
2021/12/22 05:59:27;;;;;;;26.35;14.38;;;;;;;;;;4966212;28;20207;-78
2021/12/22 06:01:53;;;;;;;22.27;14.77;;;;;;;;;;4966495;28;20192;-78
2021/12/22 06:04:19;;;;;;;23.48;14.15;;;;;;;;;;4962894;28;20612;-79
2021/12/22 06:06:45;;;;;;;20.83;13.40;;;;;;;;;;4952038;28;20220;-78
2021/12/22 06:09:11;;;;;;;27.73;13.82;;;;;;;;;;4948275;29;20211;-79
2021/12/22 06:11:37;;;;;;;22.20;13.73;;;;;;;;;;4954688;29;20184;-79
2021/12/22 06:14:03;;;;;;;30.35;14.88;;;;;;;;;;4962958;28;20220;-78
2021/12/22 06:16:30;;;;;;;24.48;12.50;;;;;;;;;;4964882;29;20188;-78
2021/12/22 06:19:00;;;;;;;21.42;12.07;;;;;;;;;;4942817;29;20180;-78
2021/12/22 06:21:26;;;;;;;25.13;13.25;;;;;;;;;;4968464;28;20738;-78
2021/12/22 06:23:52;;;;;;;27.25;14.25;;;;;;;;;;4966513;29;20597;-78
2021/12/22 06:26:18;;;;;;;31.70;14.90;;;;;;;;;;4954993;29;20189;-78
2021/12/22 06:28:44;;;;;;;30.50;15.00;;;;;;;;;;4964047;28;20211;-79
2021/12/22 06:31:10;;;;;;;20.30;13.40;;;;;;;;;;4945756;29;20184;-78
2021/12/22 06:33:36;;;;;;;25.52;14.30;;;;;;;;;;4965545;28;20267;-78
2021/12/22 06:36:03;;;;;;;25.52;13.27;;;;;;;;;;4961040;29;20283;-78
2021/12/22 06:38:29;;;;;;;28.52;15.23;;;;;;;;;;4945350;29;20212;-79
2021/12/22 06:40:56;;;;;;;35.55;17.30;;;;;;;;;;4952844;29;20189;-79
2021/12/22 06:43:23;;;;;;;20.17;13.60;;;;;;;;;;4957004;29;20185;-79
2021/12/22 06:45:49;;;;;;;21.42;14.23;;;;;;;;;;4965675;28;20237;-78
2021/12/22 06:48:15;;;;;;;22.85;11.80;;;;;;;;;;4966021;28;20172;-78
2021/12/22 06:50:41;;;;;;;28.98;14.68;;;;;;;;;;4948859;29;20187;-78
2021/12/22 06:53:07;;;;;;;27.00;14.85;;;;;;;;;;4964900;28;20270;-78
2021/12/22 06:55:34;;;;;;;25.40;14.70;;;;;;;;;;4965383;28;20196;-79
2021/12/22 06:58:00;;;;;;;29.27;16.15;;;;;;;;;;4945657;29;20189;-78
2021/12/22 07:00:27;;;;;;;27.13;15.95;;;;;;;;;;4964996;29;20183;-79
2021/12/22 07:02:54;;;;;;;28.25;15.50;;;;;;;;;;4962453;29;20184;-79
2021/12/22 07:05:20;;;;;;;25.65;14.77;;;;;;;;;;4964449;29;20216;-79
2021/12/22 07:07:46;;;;;;;27.20;14.23;;;;;;;;;;4964393;28;20204;-79
2021/12/22 07:10:12;;;;;;;31.50;15.43;;;;;;;;;;4962106;29;20213;-79
2021/12/22 07:12:42;;;;;;;28.13;15.32;;;;;;;;;;4946752;29;20203;-78
2021/12/22 07:15:10;;;;;;;24.92;15.38;;;;;;;;;;4947595;28;20200;-79
2021/12/22 07:17:37;;;;;;;27.30;15.30;;;;;;;;;;4964303;29;20169;-79
2021/12/22 07:20:05;;;;;;;30.13;15.55;;;;;;;;;;4942216;29;20207;-79
2021/12/22 07:22:31;;;;;;;29.00;16.73;;;;;;;;;;4964182;29;20177;-79
2021/12/22 07:24:57;;;;;;;22.92;14.00;;;;;;;;;;4945048;29;20304;-79
2021/12/22 07:27:23;;;;;;;24.35;13.98;;;;;;;;;;4947441;29;20193;-78
2021/12/22 07:29:49;;;;;;;27.80;14.80;;;;;;;;;;4957338;29;20185;-78
2021/12/22 07:32:15;;;;;;;26.73;15.90;;;;;;;;;;4962987;28;20199;-78
2021/12/22 07:34:41;;;;;;;24.48;14.65;;;;;;;;;;4964537;28;20339;-78
2021/12/22 07:37:15;;;;;;;26.67;15.17;;;;;;;;;;4964883;28;20184;-78
2021/12/22 07:39:41;;;;;;;26.83;14.90;;;;;;;;;;4964146;29;20976;-79
2021/12/22 07:42:07;;;;;;;30.73;15.65;;;;;;;;;;4964219;29;20177;-78
2021/12/22 07:44:33;;;;;;;27.05;14.05;;;;;;;;;;4965231;28;20184;-78
2021/12/22 07:46:59;;;;;;;25.05;15.18;;;;;;;;;;4956994;29;20189;-79
2021/12/22 07:49:25;;;;;;;26.63;15.65;;;;;;;;;;4955455;29;20338;-78
2021/12/22 07:51:51;;;;;;;26.55;16.75;;;;;;;;;;4964886;28;20666;-82
2021/12/22 07:54:17;;;;;;;26.92;14.55;;;;;;;;;;4965914;28;20207;-83
2021/12/22 07:56:43;;;;;;;26.67;17.05;;;;;;;;;;4965775;28;20208;-82
2021/12/22 07:59:09;;;;;;;24.80;14.23;;;;;;;;;;4961576;28;20181;-83
2021/12/22 08:01:35;;;;;;;29.48;15.57;;;;;;;;;;4963276;28;20191;-83
2021/12/22 08:04:01;;;;;;;26.20;15.07;;;;;;;;;;4945559;29;20215;-83
2021/12/22 08:06:28;;;;;;;28.13;14.95;;;;;;;;;;4963428;28;20216;-82
2021/12/22 08:08:54;;;;;;;23.75;13.95;;;;;;;;;;4944243;29;20464;-84
2021/12/22 08:11:20;;;;;;;25.33;14.95;;;;;;;;;;4944705;29;20562;-83
2021/12/22 08:13:46;;;;;;;26.05;15.10;;;;;;;;;;4945213;29;20199;-84
2021/12/22 08:16:12;;;;;;;22.20;15.15;;;;;;;;;;4944422;28;20835;-82
2021/12/22 08:18:38;;;;;;;24.27;15.32;;;;;;;;;;4948047;29;20239;-82
2021/12/22 08:21:04;;;;;;;21.30;13.30;;;;;;;;;;4962690;29;20184;-85
2021/12/22 08:23:30;;;;;;;25.95;14.13;;;;;;;;;;4945011;29;20180;-84
2021/12/22 08:25:56;;;;;;;29.55;14.07;;;;;;;;;;4942641;29;20188;-83
2021/12/22 08:28:22;;;;;;;17.90;12.25;;;;;;;;;;4961396;28;20197;-84
2021/12/22 08:30:48;;;;;;;24.13;15.57;;;;;;;;;;4944068;29;20185;-83
2021/12/22 08:33:22;;;;;;;27.58;14.88;;;;;;;;;;4942705;29;20617;-82
2021/12/22 08:38:50;;;;;;;18.40;13.05;;;;;;;;;;4963325;29;20669;-84
2021/12/22 08:41:17;;;;;;;26.15;15.00;;;;;;;;;;4944057;29;20188;-83
2021/12/22 08:43:43;;;;;;;31.38;17.27;;;;;;;;;;4963212;28;20188;-83
2021/12/22 08:46:09;;;;;;;24.67;15.40;;;;;;;;;;4963101;28;20189;-83
2021/12/22 08:48:35;;;;;;;24.33;14.98;;;;;;;;;;4946116;29;20192;-83
2021/12/22 08:51:01;;;;;;;23.05;13.68;;;;;;;;;;4957717;29;20177;-83
2021/12/22 08:53:27;;;;;;;23.58;13.57;;;;;;;;;;4964237;28;20204;-83
2021/12/22 08:55:53;;;;;;;26.27;15.90;;;;;;;;;;4934629;29;20217;-83
2021/12/22 08:58:19;;;;;;;23.05;14.65;;;;;;;;;;4957327;29;20181;-82
2021/12/22 09:00:45;;;;;;;22.92;14.75;;;;;;;;;;4967554;29;20188;-83
2021/12/22 09:03:11;;;;;;;25.15;14.60;;;;;;;;;;4973860;28;20180;-81
2021/12/22 09:05:37;;;;;;;27.92;15.57;;;;;;;;;;4974303;28;20227;-82
2021/12/22 09:08:03;;;;;;;31.95;17.10;;;;;;;;;;4949973;29;20202;-81
2021/12/22 09:10:29;;;;;;;25.60;16.00;;;;;;;;;;4962550;28;20634;-83
2021/12/22 09:12:55;;;;;;;27.38;15.70;;;;;;;;;;4950965;29;20205;-85
2021/12/22 09:15:22;;;;;;;28.15;15.82;;;;;;;;;;4949067;29;20740;-82
2021/12/22 09:17:48;;;;;;;32.53;15.75;;;;;;;;;;4950793;29;20204;-83
2021/12/22 09:20:14;;;;;;;23.58;14.43;;;;;;;;;;4946836;29;20229;-83
2021/12/22 09:22:40;;;;;;;26.98;15.38;;;;;;;;;;4963429;28;20184;-83
2021/12/22 09:25:06;;;;;;;27.52;15.55;;;;;;;;;;4977116;28;20252;-82
2021/12/22 09:27:32;;;;;;;25.25;12.95;;;;;;;;;;4969321;28;20282;-82
2021/12/22 09:29:58;;;;;;;32.50;14.52;;;;;;;;;;4953030;29;20209;-83
2021/12/22 09:32:25;;;;;;;28.52;16.65;;;;;;;;;;4960633;28;20199;-83
2021/12/22 09:34:51;;;;;;;26.92;15.20;;;;;;;;;;4971280;28;20206;-83
2021/12/22 09:37:17;;;;;;;31.20;16.90;;;;;;;;;;4976375;28;20192;-83
2021/12/22 09:39:43;;;;;;;28.25;15.90;;;;;;;;;;4974993;28;20181;-83
2021/12/22 09:42:10;;;;;;;31.35;16.05;;;;;;;;;;4952857;28;20187;-83
2021/12/22 09:44:43;;;;;;;27.77;16.58;;;;;;;;;;4950976;29;20199;-83
2021/12/22 09:47:10;;;;;;;30.23;16.77;;;;;;;;;;4949731;29;20243;-86
2021/12/22 09:49:48;;;;;;;26.05;16.25;;;;;;;;;;4949951;29;20613;-83
2021/12/22 09:52:23;;;;;;;29.60;16.27;;;;;;;;;;4949783;29;20192;-84
2021/12/22 09:54:50;;;;;;;27.27;16.02;;;;;;;;;;4969058;28;20203;-82
2021/12/22 09:57:17;;;;;;;31.00;16.98;;;;;;;;;;4971538;28;20176;-82
2021/12/22 09:59:45;;;;;;;30.35;15.10;;;;;;;;;;4979311;28;20176;-82
2021/12/22 10:02:11;;;;;;;29.52;16.23;;;;;;;;;;4974588;28;20211;-83
2021/12/22 10:04:37;;;;;;;28.05;17.40;;;;;;;;;;4950333;29;20220;-84
2021/12/22 10:07:03;;;;;;;37.13;18.10;;;;;;;;;;4944335;29;20221;-83
2021/12/22 10:09:31;;;;;;;29.63;17.13;;;;;;;;;;4944985;29;20193;-83
2021/12/22 10:12:05;;;;;;;29.48;16.65;;;;;;;;;;4943091;29;20182;-83
2021/12/22 10:14:33;;;;;;;31.15;18.58;;;;;;;;;;4947823;29;20217;-83
2021/12/22 10:16:59;;;;;;;24.17;15.10;;;;;;;;;;4946457;29;20177;-85
2021/12/22 10:19:26;;;;;;;30.10;15.45;;;;;;;;;;4944010;29;20182;-83
2021/12/22 10:22:02;;;;;;;38.10;18.67;;;;;;;;;;4944648;29;20189;-84
2021/12/22 10:24:42;;;;;;;33.40;16.35;;;;;;;;;;4944853;29;20193;-82
2021/12/22 10:27:12;;;;;;;33.75;18.05;;;;;;;;;;4944092;29;20184;-83
2021/12/22 10:29:38;;;;;;;25.58;16.50;;;;;;;;;;4945047;29;20714;-83
2021/12/22 10:32:09;;;;;;;32.20;17.50;;;;;;;;;;4942062;29;20197;-83
2021/12/22 10:34:35;;;;;;;30.83;17.25;;;;;;;;;;4942924;29;20233;-83
2021/12/22 10:37:02;;;;;;;28.25;16.77;;;;;;;;;;4942842;29;20189;-82
2021/12/22 10:39:34;;;;;;;30.70;18.27;;;;;;;;;;4945482;29;20181;-83
2021/12/22 10:42:10;;;;;;;37.72;18.55;;;;;;;;;;4947605;29;20185;-83
2021/12/22 10:44:41;;;;;;;31.35;17.50;;;;;;;;;;4945267;29;20189;-83
2021/12/22 10:47:19;;;;;;;31.85;17.00;;;;;;;;;;4951603;29;20200;-82
2021/12/22 10:49:57;;;;;;;26.13;15.23;;;;;;;;;;4942794;29;20730;-82
2021/12/22 10:52:24;;;;;;;30.52;17.27;;;;;;;;;;4945869;29;20227;-82
2021/12/22 10:54:51;;;;;;;23.50;14.07;;;;;;;;;;4946352;29;20201;-83
2021/12/22 10:57:17;;;;;;;26.15;15.73;;;;;;;;;;4945204;29;20180;-83
2021/12/22 10:59:45;;;;;;;28.25;16.77;;;;;;;;;;4947288;29;20172;-83
2021/12/22 11:02:12;;;;;;;32.95;17.77;;;;;;;;;;4942727;29;20188;-82
2021/12/22 11:04:42;;;;;;;31.20;18.33;;;;;;;;;;4960306;29;20189;-81
2021/12/22 11:07:13;;;;;;;29.20;16.77;;;;;;;;;;4964376;28;20722;-82
2021/12/22 11:09:39;;;;;;;26.05;16.60;;;;;;;;;;4965672;28;20232;-81
2021/12/22 11:12:06;;;;;;;27.42;17.80;;;;;;;;;;4949920;28;20188;-83
2021/12/22 11:14:33;;;;;;;31.50;18.83;;;;;;;;;;4965535;29;20267;-83
2021/12/22 11:17:02;;;;;;;30.50;17.23;;;;;;;;;;4954267;28;20189;-84
2021/12/22 11:19:41;;;;;;;29.00;15.73;;;;;;;;;;4962753;28;20185;-82
2021/12/22 11:22:15;;;;;;;28.70;16.90;;;;;;;;;;4962014;28;20189;-83
2021/12/22 11:24:43;;;;;;;29.08;17.48;;;;;;;;;;4954385;29;20226;-82
2021/12/22 11:27:10;;;;;;;29.77;17.08;;;;;;;;;;4947051;28;20227;-81
2021/12/22 11:29:37;;;;;;;31.10;17.95;;;;;;;;;;4963712;29;20236;-83
2021/12/22 11:32:04;;;;;;;32.38;17.80;;;;;;;;;;4961947;28;20196;-84
2021/12/22 11:34:34;;;;;;;27.75;16.63;;;;;;;;;;4946950;29;20211;-83
2021/12/22 11:37:00;;;;;;;25.73;16.00;;;;;;;;;;4961830;29;20184;-83
2021/12/22 11:39:26;;;;;;;29.17;16.77;;;;;;;;;;4964322;28;20211;-84
2021/12/22 11:41:57;;;;;;;25.23;16.23;;;;;;;;;;4947881;29;20187;-83
2021/12/22 11:44:27;;;;;;;36.50;17.75;;;;;;;;;;4962820;29;20251;-83
2021/12/22 11:46:55;;;;;;;29.08;17.73;;;;;;;;;;4945153;29;20216;-83
2021/12/22 11:49:22;;;;;;;32.35;17.35;;;;;;;;;;4962378;29;20534;-84
2021/12/22 11:51:48;;;;;;;25.95;15.80;;;;;;;;;;4961589;29;20192;-83
2021/12/22 11:54:14;;;;;;;25.98;15.88;;;;;;;;;;4964610;28;20639;-83
2021/12/22 11:56:40;;;;;;;29.63;17.55;;;;;;;;;;4963112;29;20177;-82
2021/12/22 11:59:07;;;;;;;25.05;15.63;;;;;;;;;;4962296;28;20191;-82
2021/12/22 12:01:33;;;;;;;24.20;16.33;;;;;;;;;;4944064;29;20189;-83
2021/12/22 12:04:15;;;;;;;30.20;17.60;;;;;;;;;;4947424;29;20662;-84
2021/12/22 12:06:48;;;;;;;26.17;16.77;;;;;;;;;;4930707;29;20212;-83
2021/12/22 12:09:14;;;;;;;28.67;16.48;;;;;;;;;;4947097;29;20247;-83
2021/12/22 12:11:51;;;;;;;31.45;18.75;;;;;;;;;;4947083;29;20179;-83
2021/12/22 12:23:32;;;;;;;28.52;17.83;;;;;;;;;;4947299;29;20282;-84
2021/12/22 12:25:59;;;;;;;29.58;17.25;;;;;;;;;;4932873;29;20200;-83
2021/12/22 12:28:25;;;;;;;27.60;17.92;;;;;;;;;;4953489;29;20558;-83
2021/12/22 12:30:52;;;;;;;33.55;17.25;;;;;;;;;;4961639;29;20663;-85
2021/12/22 12:33:22;;;;;;;25.15;16.33;;;;;;;;;;4949908;29;20192;-82
2021/12/22 12:36:09;;;;;;;28.45;18.38;;;;;;;;;;4967260;29;20267;-84
2021/12/22 12:38:41;;;;;;;25.10;14.43;;;;;;;;;;4962122;29;20181;-81
2021/12/22 12:41:11;;;;;;;30.58;18.20;;;;;;;;;;4963133;29;20188;-83
2021/12/22 12:43:51;;;;;;;30.25;18.75;;;;;;;;;;4958289;28;20646;-83
2021/12/22 12:46:24;;;;;;;30.52;17.83;;;;;;;;;;4964698;29;20191;-83
2021/12/22 12:48:56;;;;;;;28.42;15.93;;;;;;;;;;4947771;29;20217;-82
2021/12/22 12:51:29;;;;;;;30.48;18.38;;;;;;;;;;4967080;29;20236;-81
2021/12/22 12:53:57;;;;;;;32.67;18.48;;;;;;;;;;4935809;29;20646;-83
2021/12/22 12:56:30;;;;;;;28.65;17.95;;;;;;;;;;4965029;29;20200;-82
2021/12/22 12:58:56;;;;;;;31.67;17.42;;;;;;;;;;4947831;29;20185;-83
2021/12/22 13:01:40;;;;;;;28.98;19.30;;;;;;;;;;4965438;28;20207;-82
2021/12/22 13:04:30;;;;;;;25.73;16.17;;;;;;;;;;4947813;29;20199;-82
2021/12/22 13:07:06;;;;;;;28.90;17.45;;;;;;;;;;4949597;28;20583;-82
2021/12/22 13:09:33;;;;;;;31.13;16.92;;;;;;;;;;4948244;29;20180;-82
2021/12/22 13:12:04;;;;;;;25.27;15.40;;;;;;;;;;4948387;29;20177;-82
2021/12/22 13:17:19;;;;;;;34.45;20.05;;;;;;;;;;4962254;29;20665;-83
2021/12/22 13:19:48;;;;;;;32.60;18.77;;;;;;;;;;4959007;28;20248;-82
2021/12/22 13:22:24;;;;;;;28.67;17.35;;;;;;;;;;4959666;29;20191;-83
2021/12/22 13:25:05;;;;;;;30.10;17.95;;;;;;;;;;4949188;29;20180;-85
2021/12/22 13:27:32;;;;;;;26.92;17.50;;;;;;;;;;4947382;29;20200;-84
2021/12/22 13:30:07;;;;;;;31.58;18.55;;;;;;;;;;4962978;29;20177;-83
2021/12/22 13:32:33;;;;;;;29.10;18.67;;;;;;;;;;4967171;29;20199;-84
2021/12/22 13:34:59;;;;;;;28.35;18.08;;;;;;;;;;4963085;29;20350;-82
2021/12/22 13:37:26;;;;;;;27.05;18.02;;;;;;;;;;4963879;28;20189;-82
2021/12/22 13:39:52;;;;;;;35.55;19.60;;;;;;;;;;4964634;29;20205;-82
2021/12/22 13:42:18;;;;;;;30.23;18.30;;;;;;;;;;4966306;28;20172;-82
2021/12/22 13:44:44;;;;;;;30.13;16.83;;;;;;;;;;4962349;29;20184;-81
2021/12/22 13:47:10;;;;;;;31.52;17.85;;;;;;;;;;4955586;28;20185;-84
2021/12/22 13:49:36;;;;;;;27.05;16.92;;;;;;;;;;4958042;29;20187;-82
2021/12/22 13:52:03;;;;;;;29.00;18.38;;;;;;;;;;4946337;29;20189;-83
2021/12/22 13:54:31;;;;;;;28.92;18.10;;;;;;;;;;4951733;28;20216;-83
2021/12/22 13:57:02;;;;;;;28.55;17.60;;;;;;;;;;4962693;29;20173;-83
2021/12/22 13:59:29;;;;;;;29.77;17.35;;;;;;;;;;4950091;29;20223;-84
2021/12/22 14:01:56;;;;;;;28.55;16.17;;;;;;;;;;4949263;29;20184;-82
2021/12/22 14:04:28;;;;;;;31.08;19.15;;;;;;;;;;4964300;29;20216;-82
2021/12/22 14:07:15;;;;;;;28.52;16.52;;;;;;;;;;4963298;28;20470;-81
2021/12/22 14:09:52;;;;;;;31.85;19.25;;;;;;;;;;4950087;29;20500;-81
2021/12/22 14:12:25;;;;;;;29.35;18.65;;;;;;;;;;4948785;29;20177;-81
2021/12/22 14:14:53;;;;;;;25.90;17.00;;;;;;;;;;4966436;29;20212;-81
2021/12/22 14:17:33;;;;;;;28.02;17.75;;;;;;;;;;4958577;29;20192;-81
2021/12/22 14:20:02;;;;;;;27.85;17.60;;;;;;;;;;4960325;28;20180;-82
2021/12/22 14:22:31;;;;;;;27.70;16.75;;;;;;;;;;4959958;29;22296;-82
2021/12/22 14:24:57;;;;;;;29.20;18.23;;;;;;;;;;4963762;28;20267;-81
2021/12/22 14:27:30;;;;;;;29.55;18.67;;;;;;;;;;4965387;28;20185;-82
2021/12/22 14:29:58;;;;;;;28.33;16.58;;;;;;;;;;4966621;29;20180;-83
2021/12/22 14:32:26;;;;;;;32.97;19.27;;;;;;;;;;4963269;28;20184;-81
2021/12/22 14:35:04;;;;;;;30.30;17.20;;;;;;;;;;4962200;28;20681;-82
2021/12/22 14:37:32;;;;;;;25.63;15.45;;;;;;;;;;4963111;28;20188;-81
2021/12/22 14:39:58;;;;;;;29.23;16.35;;;;;;;;;;4963184;29;20176;-82
2021/12/22 14:42:26;;;;;;;37.42;20.10;;;;;;;;;;4947360;28;20183;-82
2021/12/22 14:44:53;;;;;;;26.25;17.33;;;;;;;;;;4948122;29;20168;-80
2021/12/22 14:47:22;;;;;;;24.58;17.52;;;;;;;;;;4962378;28;20193;-81